sensor_id;sensor_type;location;lat;lon;timestamp;P1;durP1;ratioP1;P2;durP2;ratioP2
23086;SDS011;11712;51.134;4.156;2022-07-30T00:00:05;0.40;;;0.40;;
23086;SDS011;11712;51.134;4.156;2022-07-30T00:02:32;0.40;;;0.40;;
23086;SDS011;11712;51.134;4.156;2022-07-30T00:04:58;0.40;;;0.40;;
23086;SDS011;11712;51.134;4.156;2022-07-30T00:07:24;0.40;;;0.40;;
23086;SDS011;11712;51.134;4.156;2022-07-30T00:09:50;0.40;;;0.40;;
23086;SDS011;11712;51.134;4.156;2022-07-30T00:12:15;0.38;;;0.38;;
23086;SDS011;11712;51.134;4.156;2022-07-30T00:14:41;0.30;;;0.30;;
23086;SDS011;11712;51.134;4.156;2022-07-30T00:17:07;0.40;;;0.40;;
23086;SDS011;11712;51.134;4.156;2022-07-30T00:19:33;0.40;;;0.40;;
23086;SDS011;11712;51.134;4.156;2022-07-30T00:21:59;0.40;;;0.40;;
23086;SDS011;11712;51.134;4.156;2022-07-30T00:24:25;0.40;;;0.40;;
23086;SDS011;11712;51.134;4.156;2022-07-30T00:26:51;0.40;;;0.40;;
23086;SDS011;11712;51.134;4.156;2022-07-30T00:29:16;0.40;;;0.40;;
23086;SDS011;11712;51.134;4.156;2022-07-30T00:31:42;0.40;;;0.40;;
23086;SDS011;11712;51.134;4.156;2022-07-30T00:34:08;0.40;;;0.40;;
23086;SDS011;11712;51.134;4.156;2022-07-30T00:36:33;0.40;;;0.40;;
23086;SDS011;11712;51.134;4.156;2022-07-30T00:39:00;0.30;;;0.30;;
23086;SDS011;11712;51.134;4.156;2022-07-30T00:41:25;0.32;;;0.32;;
23086;SDS011;11712;51.134;4.156;2022-07-30T00:43:51;0.32;;;0.32;;
23086;SDS011;11712;51.134;4.156;2022-07-30T00:46:17;0.40;;;0.40;;
23086;SDS011;11712;51.134;4.156;2022-07-30T00:48:42;0.32;;;0.32;;
23086;SDS011;11712;51.134;4.156;2022-07-30T00:51:09;0.40;;;0.40;;
23086;SDS011;11712;51.134;4.156;2022-07-30T00:53:35;0.32;;;0.32;;
23086;SDS011;11712;51.134;4.156;2022-07-30T00:56:01;0.40;;;0.40;;
23086;SDS011;11712;51.134;4.156;2022-07-30T00:58:28;0.30;;;0.30;;
23086;SDS011;11712;51.134;4.156;2022-07-30T01:00:54;0.30;;;0.30;;
23086;SDS011;11712;51.134;4.156;2022-07-30T01:03:19;0.40;;;0.40;;
23086;SDS011;11712;51.134;4.156;2022-07-30T01:05:45;0.30;;;0.30;;
23086;SDS011;11712;51.134;4.156;2022-07-30T01:08:11;0.40;;;0.40;;
23086;SDS011;11712;51.134;4.156;2022-07-30T01:10:37;0.30;;;0.30;;
23086;SDS011;11712;51.134;4.156;2022-07-30T01:13:03;0.30;;;0.30;;
23086;SDS011;11712;51.134;4.156;2022-07-30T01:15:29;0.40;;;0.40;;
23086;SDS011;11712;51.134;4.156;2022-07-30T01:17:57;0.40;;;0.40;;
23086;SDS011;11712;51.134;4.156;2022-07-30T01:21:00;0.40;;;0.40;;
23086;SDS011;11712;51.134;4.156;2022-07-30T01:23:34;0.30;;;0.30;;
23086;SDS011;11712;51.134;4.156;2022-07-30T01:26:03;0.40;;;0.40;;
23086;SDS011;11712;51.134;4.156;2022-07-30T01:28:37;0.40;;;0.40;;
23086;SDS011;11712;51.134;4.156;2022-07-30T01:31:06;0.40;;;0.40;;
23086;SDS011;11712;51.134;4.156;2022-07-30T01:33:34;0.40;;;0.40;;
23086;SDS011;11712;51.134;4.156;2022-07-30T01:36:04;0.40;;;0.40;;
23086;SDS011;11712;51.134;4.156;2022-07-30T01:38:34;0.40;;;0.40;;
23086;SDS011;11712;51.134;4.156;2022-07-30T01:41:01;0.40;;;0.40;;
23086;SDS011;11712;51.134;4.156;2022-07-30T01:43:28;0.40;;;0.40;;
23086;SDS011;11712;51.134;4.156;2022-07-30T01:45:57;0.30;;;0.30;;
23086;SDS011;11712;51.134;4.156;2022-07-30T01:48:23;0.40;;;0.40;;
23086;SDS011;11712;51.134;4.156;2022-07-30T01:50:52;0.30;;;0.30;;
23086;SDS011;11712;51.134;4.156;2022-07-30T01:53:31;0.40;;;0.40;;
23086;SDS011;11712;51.134;4.156;2022-07-30T01:55:59;0.40;;;0.40;;
23086;SDS011;11712;51.134;4.156;2022-07-30T01:58:28;0.40;;;0.40;;
23086;SDS011;11712;51.134;4.156;2022-07-30T02:00:57;0.40;;;0.40;;
23086;SDS011;11712;51.134;4.156;2022-07-30T02:03:23;0.40;;;0.40;;
23086;SDS011;11712;51.134;4.156;2022-07-30T02:05:51;0.40;;;0.40;;
23086;SDS011;11712;51.134;4.156;2022-07-30T02:08:23;0.30;;;0.30;;
23086;SDS011;11712;51.134;4.156;2022-07-30T02:10:57;0.30;;;0.30;;
23086;SDS011;11712;51.134;4.156;2022-07-30T02:13:51;0.40;;;0.40;;
23086;SDS011;11712;51.134;4.156;2022-07-30T02:16:23;0.40;;;0.40;;
23086;SDS011;11712;51.134;4.156;2022-07-30T02:18:56;0.40;;;0.40;;
23086;SDS011;11712;51.134;4.156;2022-07-30T02:21:37;0.40;;;0.40;;
23086;SDS011;11712;51.134;4.156;2022-07-30T02:24:11;0.40;;;0.40;;
23086;SDS011;11712;51.134;4.156;2022-07-30T02:26:39;0.40;;;0.40;;
23086;SDS011;11712;51.134;4.156;2022-07-30T02:29:07;0.40;;;0.40;;
23086;SDS011;11712;51.134;4.156;2022-07-30T02:31:34;0.40;;;0.40;;
23086;SDS011;11712;51.134;4.156;2022-07-30T02:34:02;0.40;;;0.40;;
23086;SDS011;11712;51.134;4.156;2022-07-30T02:36:31;0.40;;;0.40;;
23086;SDS011;11712;51.134;4.156;2022-07-30T02:38:59;0.40;;;0.40;;
23086;SDS011;11712;51.134;4.156;2022-07-30T02:41:27;0.38;;;0.38;;
23086;SDS011;11712;51.134;4.156;2022-07-30T02:43:55;0.30;;;0.30;;
23086;SDS011;11712;51.134;4.156;2022-07-30T02:46:21;0.40;;;0.40;;
23086;SDS011;11712;51.134;4.156;2022-07-30T02:48:49;0.32;;;0.32;;
23086;SDS011;11712;51.134;4.156;2022-07-30T02:51:17;0.40;;;0.40;;
23086;SDS011;11712;51.134;4.156;2022-07-30T02:53:45;0.40;;;0.40;;
23086;SDS011;11712;51.134;4.156;2022-07-30T02:56:12;0.40;;;0.40;;
23086;SDS011;11712;51.134;4.156;2022-07-30T02:58:40;0.40;;;0.40;;
23086;SDS011;11712;51.134;4.156;2022-07-30T03:01:08;0.40;;;0.40;;
23086;SDS011;11712;51.134;4.156;2022-07-30T03:03:37;0.40;;;0.40;;
23086;SDS011;11712;51.134;4.156;2022-07-30T03:06:05;0.40;;;0.40;;
23086;SDS011;11712;51.134;4.156;2022-07-30T03:08:33;0.40;;;0.40;;
23086;SDS011;11712;51.134;4.156;2022-07-30T03:10:59;0.40;;;0.40;;
23086;SDS011;11712;51.134;4.156;2022-07-30T03:13:25;0.40;;;0.40;;
23086;SDS011;11712;51.134;4.156;2022-07-30T03:15:51;0.40;;;0.40;;
23086;SDS011;11712;51.134;4.156;2022-07-30T03:18:19;0.40;;;0.40;;
23086;SDS011;11712;51.134;4.156;2022-07-30T03:20:48;0.40;;;0.40;;
23086;SDS011;11712;51.134;4.156;2022-07-30T03:23:20;0.40;;;0.40;;
23086;SDS011;11712;51.134;4.156;2022-07-30T03:25:49;0.40;;;0.40;;
23086;SDS011;11712;51.134;4.156;2022-07-30T03:28:21;0.30;;;0.30;;
23086;SDS011;11712;51.134;4.156;2022-07-30T03:30:48;0.40;;;0.40;;
23086;SDS011;11712;51.134;4.156;2022-07-30T03:33:15;0.40;;;0.40;;
23086;SDS011;11712;51.134;4.156;2022-07-30T03:35:41;0.40;;;0.40;;
23086;SDS011;11712;51.134;4.156;2022-07-30T03:38:12;0.40;;;0.40;;
23086;SDS011;11712;51.134;4.156;2022-07-30T03:40:39;0.40;;;0.40;;
23086;SDS011;11712;51.134;4.156;2022-07-30T03:43:06;0.40;;;0.40;;
23086;SDS011;11712;51.134;4.156;2022-07-30T03:45:35;0.40;;;0.40;;
23086;SDS011;11712;51.134;4.156;2022-07-30T03:48:02;0.40;;;0.40;;
23086;SDS011;11712;51.134;4.156;2022-07-30T03:50:31;0.40;;;0.40;;
23086;SDS011;11712;51.134;4.156;2022-07-30T03:53:00;0.40;;;0.40;;
23086;SDS011;11712;51.134;4.156;2022-07-30T03:55:27;0.40;;;0.40;;
23086;SDS011;11712;51.134;4.156;2022-07-30T03:57:53;0.40;;;0.40;;
23086;SDS011;11712;51.134;4.156;2022-07-30T04:00:19;0.40;;;0.40;;
23086;SDS011;11712;51.134;4.156;2022-07-30T04:02:46;0.40;;;0.40;;
23086;SDS011;11712;51.134;4.156;2022-07-30T04:05:12;0.40;;;0.40;;
23086;SDS011;11712;51.134;4.156;2022-07-30T04:07:38;0.40;;;0.40;;
23086;SDS011;11712;51.134;4.156;2022-07-30T04:10:05;0.40;;;0.40;;
23086;SDS011;11712;51.134;4.156;2022-07-30T04:12:31;0.40;;;0.40;;
23086;SDS011;11712;51.134;4.156;2022-07-30T04:14:57;0.40;;;0.40;;
23086;SDS011;11712;51.134;4.156;2022-07-30T04:20:02;0.32;;;0.32;;
23086;SDS011;11712;51.134;4.156;2022-07-30T04:22:36;0.40;;;0.40;;
23086;SDS011;11712;51.134;4.156;2022-07-30T04:25:05;0.40;;;0.40;;
23086;SDS011;11712;51.134;4.156;2022-07-30T04:27:33;0.40;;;0.40;;
23086;SDS011;11712;51.134;4.156;2022-07-30T04:30:00;0.30;;;0.30;;
23086;SDS011;11712;51.134;4.156;2022-07-30T04:32:27;0.40;;;0.40;;
23086;SDS011;11712;51.134;4.156;2022-07-30T04:34:54;0.40;;;0.40;;
23086;SDS011;11712;51.134;4.156;2022-07-30T04:37:22;0.40;;;0.40;;
23086;SDS011;11712;51.134;4.156;2022-07-30T04:39:49;0.40;;;0.40;;
23086;SDS011;11712;51.134;4.156;2022-07-30T04:42:24;0.40;;;0.40;;
23086;SDS011;11712;51.134;4.156;2022-07-30T04:44:54;0.30;;;0.30;;
23086;SDS011;11712;51.134;4.156;2022-07-30T04:47:21;0.40;;;0.40;;
23086;SDS011;11712;51.134;4.156;2022-07-30T04:49:47;0.40;;;0.40;;
23086;SDS011;11712;51.134;4.156;2022-07-30T04:52:15;0.40;;;0.40;;
23086;SDS011;11712;51.134;4.156;2022-07-30T04:54:52;0.40;;;0.40;;
23086;SDS011;11712;51.134;4.156;2022-07-30T04:57:20;0.40;;;0.40;;
23086;SDS011;11712;51.134;4.156;2022-07-30T04:59:48;0.40;;;0.40;;
23086;SDS011;11712;51.134;4.156;2022-07-30T05:02:14;0.40;;;0.40;;
23086;SDS011;11712;51.134;4.156;2022-07-30T05:04:43;0.40;;;0.40;;
23086;SDS011;11712;51.134;4.156;2022-07-30T05:07:09;0.40;;;0.40;;
23086;SDS011;11712;51.134;4.156;2022-07-30T05:09:38;0.40;;;0.40;;
23086;SDS011;11712;51.134;4.156;2022-07-30T05:12:04;0.40;;;0.40;;
23086;SDS011;11712;51.134;4.156;2022-07-30T05:14:29;0.40;;;0.40;;
23086;SDS011;11712;51.134;4.156;2022-07-30T05:16:55;0.40;;;0.40;;
23086;SDS011;11712;51.134;4.156;2022-07-30T05:19:21;0.40;;;0.40;;
23086;SDS011;11712;51.134;4.156;2022-07-30T05:21:47;0.40;;;0.40;;
23086;SDS011;11712;51.134;4.156;2022-07-30T05:24:13;0.38;;;0.38;;
23086;SDS011;11712;51.134;4.156;2022-07-30T05:26:39;0.40;;;0.40;;
23086;SDS011;11712;51.134;4.156;2022-07-30T05:29:05;0.40;;;0.40;;
23086;SDS011;11712;51.134;4.156;2022-07-30T05:31:31;0.40;;;0.40;;
23086;SDS011;11712;51.134;4.156;2022-07-30T05:33:57;0.40;;;0.40;;
23086;SDS011;11712;51.134;4.156;2022-07-30T05:36:22;0.40;;;0.40;;
23086;SDS011;11712;51.134;4.156;2022-07-30T05:38:48;0.40;;;0.40;;
23086;SDS011;11712;51.134;4.156;2022-07-30T05:41:14;0.40;;;0.40;;
23086;SDS011;11712;51.134;4.156;2022-07-30T05:43:40;0.40;;;0.40;;
23086;SDS011;11712;51.134;4.156;2022-07-30T05:46:07;0.40;;;0.40;;
23086;SDS011;11712;51.134;4.156;2022-07-30T05:48:32;0.30;;;0.30;;
23086;SDS011;11712;51.134;4.156;2022-07-30T05:51:00;0.40;;;0.40;;
23086;SDS011;11712;51.134;4.156;2022-07-30T05:53:26;0.30;;;0.30;;
23086;SDS011;11712;51.134;4.156;2022-07-30T05:55:52;0.40;;;0.40;;
23086;SDS011;11712;51.134;4.156;2022-07-30T05:58:17;0.40;;;0.40;;
23086;SDS011;11712;51.134;4.156;2022-07-30T06:00:43;0.40;;;0.40;;
23086;SDS011;11712;51.134;4.156;2022-07-30T06:03:10;0.40;;;0.40;;
23086;SDS011;11712;51.134;4.156;2022-07-30T06:05:36;0.40;;;0.40;;
23086;SDS011;11712;51.134;4.156;2022-07-30T06:08:01;0.40;;;0.40;;
23086;SDS011;11712;51.134;4.156;2022-07-30T06:10:27;0.40;;;0.40;;
23086;SDS011;11712;51.134;4.156;2022-07-30T06:12:53;0.40;;;0.40;;
23086;SDS011;11712;51.134;4.156;2022-07-30T06:15:19;0.40;;;0.40;;
23086;SDS011;11712;51.134;4.156;2022-07-30T06:17:45;0.40;;;0.40;;
23086;SDS011;11712;51.134;4.156;2022-07-30T06:20:12;0.30;;;0.30;;
23086;SDS011;11712;51.134;4.156;2022-07-30T06:22:39;0.40;;;0.40;;
23086;SDS011;11712;51.134;4.156;2022-07-30T06:25:06;0.30;;;0.30;;
23086;SDS011;11712;51.134;4.156;2022-07-30T06:27:32;0.30;;;0.30;;
23086;SDS011;11712;51.134;4.156;2022-07-30T06:30:07;0.35;;;0.35;;
23086;SDS011;11712;51.134;4.156;2022-07-30T06:32:34;0.30;;;0.30;;
23086;SDS011;11712;51.134;4.156;2022-07-30T06:35:00;0.30;;;0.30;;
23086;SDS011;11712;51.134;4.156;2022-07-30T06:37:26;0.30;;;0.30;;
23086;SDS011;11712;51.134;4.156;2022-07-30T06:39:52;0.32;;;0.32;;
23086;SDS011;11712;51.134;4.156;2022-07-30T06:42:18;0.30;;;0.30;;
23086;SDS011;11712;51.134;4.156;2022-07-30T06:44:44;0.30;;;0.30;;
23086;SDS011;11712;51.134;4.156;2022-07-30T06:47:09;0.40;;;0.40;;
23086;SDS011;11712;51.134;4.156;2022-07-30T06:49:35;0.30;;;0.30;;
23086;SDS011;11712;51.134;4.156;2022-07-30T06:52:02;0.40;;;0.40;;
23086;SDS011;11712;51.134;4.156;2022-07-30T06:54:28;0.40;;;0.40;;
23086;SDS011;11712;51.134;4.156;2022-07-30T06:56:54;0.40;;;0.40;;
23086;SDS011;11712;51.134;4.156;2022-07-30T06:59:20;0.30;;;0.30;;
23086;SDS011;11712;51.134;4.156;2022-07-30T07:01:46;0.30;;;0.30;;
23086;SDS011;11712;51.134;4.156;2022-07-30T07:04:11;0.40;;;0.40;;
23086;SDS011;11712;51.134;4.156;2022-07-30T07:06:37;0.30;;;0.30;;
23086;SDS011;11712;51.134;4.156;2022-07-30T07:09:03;0.40;;;0.40;;
23086;SDS011;11712;51.134;4.156;2022-07-30T07:11:29;0.30;;;0.30;;
23086;SDS011;11712;51.134;4.156;2022-07-30T07:13:55;0.30;;;0.30;;
23086;SDS011;11712;51.134;4.156;2022-07-30T07:16:21;0.30;;;0.30;;
23086;SDS011;11712;51.134;4.156;2022-07-30T07:18:52;0.30;;;0.30;;
23086;SDS011;11712;51.134;4.156;2022-07-30T07:21:19;0.38;;;0.38;;
23086;SDS011;11712;51.134;4.156;2022-07-30T07:23:45;0.30;;;0.30;;
23086;SDS011;11712;51.134;4.156;2022-07-30T07:26:13;0.40;;;0.40;;
23086;SDS011;11712;51.134;4.156;2022-07-30T07:28:39;0.40;;;0.40;;
23086;SDS011;11712;51.134;4.156;2022-07-30T07:31:05;0.38;;;0.38;;
23086;SDS011;11712;51.134;4.156;2022-07-30T07:33:34;0.35;;;0.35;;
23086;SDS011;11712;51.134;4.156;2022-07-30T07:35:59;0.35;;;0.35;;
23086;SDS011;11712;51.134;4.156;2022-07-30T07:38:25;0.40;;;0.40;;
23086;SDS011;11712;51.134;4.156;2022-07-30T07:40:51;0.30;;;0.30;;
23086;SDS011;11712;51.134;4.156;2022-07-30T07:43:17;0.30;;;0.30;;
23086;SDS011;11712;51.134;4.156;2022-07-30T07:45:43;0.30;;;0.30;;
23086;SDS011;11712;51.134;4.156;2022-07-30T07:48:09;0.30;;;0.30;;
23086;SDS011;11712;51.134;4.156;2022-07-30T07:50:36;0.30;;;0.30;;
23086;SDS011;11712;51.134;4.156;2022-07-30T07:53:03;0.30;;;0.30;;
23086;SDS011;11712;51.134;4.156;2022-07-30T07:55:28;0.30;;;0.30;;
23086;SDS011;11712;51.134;4.156;2022-07-30T07:57:54;0.30;;;0.30;;
23086;SDS011;11712;51.134;4.156;2022-07-30T08:00:20;0.40;;;0.40;;
23086;SDS011;11712;51.134;4.156;2022-07-30T08:02:46;0.30;;;0.30;;
23086;SDS011;11712;51.134;4.156;2022-07-30T08:05:12;0.30;;;0.30;;
23086;SDS011;11712;51.134;4.156;2022-07-30T08:07:39;0.30;;;0.30;;
23086;SDS011;11712;51.134;4.156;2022-07-30T08:10:05;0.30;;;0.30;;
23086;SDS011;11712;51.134;4.156;2022-07-30T08:12:31;0.30;;;0.30;;
23086;SDS011;11712;51.134;4.156;2022-07-30T08:14:57;0.30;;;0.30;;
23086;SDS011;11712;51.134;4.156;2022-07-30T08:17:23;0.30;;;0.30;;
23086;SDS011;11712;51.134;4.156;2022-07-30T08:19:49;0.30;;;0.30;;
23086;SDS011;11712;51.134;4.156;2022-07-30T08:22:15;0.30;;;0.30;;
23086;SDS011;11712;51.134;4.156;2022-07-30T08:24:41;0.32;;;0.32;;
23086;SDS011;11712;51.134;4.156;2022-07-30T08:27:07;0.40;;;0.40;;
23086;SDS011;11712;51.134;4.156;2022-07-30T08:29:33;0.30;;;0.30;;
23086;SDS011;11712;51.134;4.156;2022-07-30T08:31:59;0.30;;;0.30;;
23086;SDS011;11712;51.134;4.156;2022-07-30T08:34:25;0.30;;;0.30;;
23086;SDS011;11712;51.134;4.156;2022-07-30T08:36:51;0.30;;;0.30;;
23086;SDS011;11712;51.134;4.156;2022-07-30T08:39:16;0.30;;;0.30;;
23086;SDS011;11712;51.134;4.156;2022-07-30T08:41:42;0.30;;;0.30;;
23086;SDS011;11712;51.134;4.156;2022-07-30T08:44:08;0.40;;;0.40;;
23086;SDS011;11712;51.134;4.156;2022-07-30T08:46:35;0.30;;;0.30;;
23086;SDS011;11712;51.134;4.156;2022-07-30T08:49:06;0.30;;;0.30;;
23086;SDS011;11712;51.134;4.156;2022-07-30T08:51:33;0.30;;;0.30;;
23086;SDS011;11712;51.134;4.156;2022-07-30T08:54:00;0.30;;;0.30;;
23086;SDS011;11712;51.134;4.156;2022-07-30T08:56:26;0.30;;;0.30;;
23086;SDS011;11712;51.134;4.156;2022-07-30T08:58:52;0.30;;;0.30;;
23086;SDS011;11712;51.134;4.156;2022-07-30T09:01:19;0.30;;;0.30;;
23086;SDS011;11712;51.134;4.156;2022-07-30T09:03:47;0.30;;;0.30;;
23086;SDS011;11712;51.134;4.156;2022-07-30T09:06:12;0.30;;;0.30;;
23086;SDS011;11712;51.134;4.156;2022-07-30T09:08:39;0.30;;;0.30;;
23086;SDS011;11712;51.134;4.156;2022-07-30T09:11:05;0.30;;;0.30;;
23086;SDS011;11712;51.134;4.156;2022-07-30T09:13:35;0.30;;;0.30;;
23086;SDS011;11712;51.134;4.156;2022-07-30T09:16:03;0.30;;;0.30;;
23086;SDS011;11712;51.134;4.156;2022-07-30T09:18:36;0.30;;;0.30;;
23086;SDS011;11712;51.134;4.156;2022-07-30T09:26:27;0.30;;;0.30;;
23086;SDS011;11712;51.134;4.156;2022-07-30T09:28:55;0.20;;;0.20;;
23086;SDS011;11712;51.134;4.156;2022-07-30T09:34:39;0.30;;;0.30;;
23086;SDS011;11712;51.134;4.156;2022-07-30T09:39:37;0.30;;;0.30;;
23086;SDS011;11712;51.134;4.156;2022-07-30T09:42:15;0.30;;;0.30;;
23086;SDS011;11712;51.134;4.156;2022-07-30T09:44:45;0.30;;;0.30;;
23086;SDS011;11712;51.134;4.156;2022-07-30T09:47:34;0.30;;;0.30;;
23086;SDS011;11712;51.134;4.156;2022-07-30T09:50:09;0.30;;;0.30;;
23086;SDS011;11712;51.134;4.156;2022-07-30T09:52:41;0.30;;;0.30;;
23086;SDS011;11712;51.134;4.156;2022-07-30T09:55:09;0.30;;;0.30;;
23086;SDS011;11712;51.134;4.156;2022-07-30T09:57:52;0.22;;;0.22;;
23086;SDS011;11712;51.134;4.156;2022-07-30T10:00:39;0.30;;;0.30;;
23086;SDS011;11712;51.134;4.156;2022-07-30T10:03:19;0.30;;;0.30;;
23086;SDS011;11712;51.134;4.156;2022-07-30T10:05:55;0.30;;;0.30;;
23086;SDS011;11712;51.134;4.156;2022-07-30T10:09:04;0.30;;;0.30;;
23086;SDS011;11712;51.134;4.156;2022-07-30T10:11:16;0.30;;;0.30;;
23086;SDS011;11712;51.134;4.156;2022-07-30T10:13:47;0.20;;;0.20;;
23086;SDS011;11712;51.134;4.156;2022-07-30T10:16:14;0.30;;;0.30;;
23086;SDS011;11712;51.134;4.156;2022-07-30T10:18:41;0.22;;;0.22;;
23086;SDS011;11712;51.134;4.156;2022-07-30T10:21:07;0.30;;;0.30;;
23086;SDS011;11712;51.134;4.156;2022-07-30T10:23:33;0.30;;;0.30;;
23086;SDS011;11712;51.134;4.156;2022-07-30T10:25:59;0.30;;;0.30;;
23086;SDS011;11712;51.134;4.156;2022-07-30T10:28:26;0.30;;;0.30;;
23086;SDS011;11712;51.134;4.156;2022-07-30T10:30:54;0.20;;;0.20;;
23086;SDS011;11712;51.134;4.156;2022-07-30T10:33:21;0.20;;;0.20;;
23086;SDS011;11712;51.134;4.156;2022-07-30T10:35:49;0.30;;;0.30;;
23086;SDS011;11712;51.134;4.156;2022-07-30T10:38:15;0.30;;;0.30;;
23086;SDS011;11712;51.134;4.156;2022-07-30T10:40:58;0.30;;;0.30;;
23086;SDS011;11712;51.134;4.156;2022-07-30T10:46:26;0.30;;;0.30;;
23086;SDS011;11712;51.134;4.156;2022-07-30T10:49:06;0.30;;;0.30;;
23086;SDS011;11712;51.134;4.156;2022-07-30T10:51:46;0.30;;;0.30;;
23086;SDS011;11712;51.134;4.156;2022-07-30T10:54:35;0.30;;;0.30;;
23086;SDS011;11712;51.134;4.156;2022-07-30T10:57:06;0.30;;;0.30;;
23086;SDS011;11712;51.134;4.156;2022-07-30T11:02:20;0.30;;;0.30;;
23086;SDS011;11712;51.134;4.156;2022-07-30T11:04:46;0.20;;;0.20;;
23086;SDS011;11712;51.134;4.156;2022-07-30T11:09:50;0.30;;;0.30;;
23086;SDS011;11712;51.134;4.156;2022-07-30T11:15:11;0.30;;;0.30;;
23086;SDS011;11712;51.134;4.156;2022-07-30T11:17:57;0.22;;;0.22;;
23086;SDS011;11712;51.134;4.156;2022-07-30T11:20:27;0.30;;;0.30;;
23086;SDS011;11712;51.134;4.156;2022-07-30T11:22:54;0.30;;;0.30;;
23086;SDS011;11712;51.134;4.156;2022-07-30T11:25:52;0.20;;;0.20;;
23086;SDS011;11712;51.134;4.156;2022-07-30T11:31:23;0.30;;;0.30;;
23086;SDS011;11712;51.134;4.156;2022-07-30T11:42:29;0.30;;;0.30;;
23086;SDS011;11712;51.134;4.156;2022-07-30T11:47:43;0.30;;;0.30;;
23086;SDS011;11712;51.134;4.156;2022-07-30T11:50:16;0.30;;;0.30;;
23086;SDS011;11712;51.134;4.156;2022-07-30T11:52:49;0.30;;;0.30;;
23086;SDS011;11712;51.134;4.156;2022-07-30T11:55:28;0.30;;;0.30;;
23086;SDS011;11712;51.134;4.156;2022-07-30T11:57:59;0.30;;;0.30;;
23086;SDS011;11712;51.134;4.156;2022-07-30T12:00:33;0.20;;;0.20;;
23086;SDS011;11712;51.134;4.156;2022-07-30T12:03:07;0.22;;;0.22;;
23086;SDS011;11712;51.134;4.156;2022-07-30T12:05:35;0.30;;;0.30;;
23086;SDS011;11712;51.134;4.156;2022-07-30T12:08:02;0.20;;;0.20;;
23086;SDS011;11712;51.134;4.156;2022-07-30T12:10:28;0.30;;;0.30;;
23086;SDS011;11712;51.134;4.156;2022-07-30T12:13:05;0.30;;;0.30;;
23086;SDS011;11712;51.134;4.156;2022-07-30T12:15:44;0.30;;;0.30;;
23086;SDS011;11712;51.134;4.156;2022-07-30T12:18:11;0.30;;;0.30;;
23086;SDS011;11712;51.134;4.156;2022-07-30T12:20:38;0.30;;;0.30;;
23086;SDS011;11712;51.134;4.156;2022-07-30T12:23:11;0.30;;;0.30;;
23086;SDS011;11712;51.134;4.156;2022-07-30T12:28:04;0.20;;;0.20;;
23086;SDS011;11712;51.134;4.156;2022-07-30T12:30:30;0.20;;;0.20;;
23086;SDS011;11712;51.134;4.156;2022-07-30T12:32:56;0.20;;;0.20;;
23086;SDS011;11712;51.134;4.156;2022-07-30T12:35:21;0.22;;;0.22;;
23086;SDS011;11712;51.134;4.156;2022-07-30T12:38:03;0.30;;;0.30;;
23086;SDS011;11712;51.134;4.156;2022-07-30T12:40:29;0.20;;;0.20;;
23086;SDS011;11712;51.134;4.156;2022-07-30T12:42:55;0.30;;;0.30;;
23086;SDS011;11712;51.134;4.156;2022-07-30T12:45:24;0.20;;;0.20;;
23086;SDS011;11712;51.134;4.156;2022-07-30T12:47:51;0.30;;;0.30;;
23086;SDS011;11712;51.134;4.156;2022-07-30T12:50:16;0.30;;;0.30;;
23086;SDS011;11712;51.134;4.156;2022-07-30T12:52:46;0.30;;;0.30;;
23086;SDS011;11712;51.134;4.156;2022-07-30T12:55:15;0.30;;;0.30;;
23086;SDS011;11712;51.134;4.156;2022-07-30T12:57:55;0.30;;;0.30;;
23086;SDS011;11712;51.134;4.156;2022-07-30T13:00:22;0.30;;;0.30;;
23086;SDS011;11712;51.134;4.156;2022-07-30T13:02:55;0.30;;;0.30;;
23086;SDS011;11712;51.134;4.156;2022-07-30T13:08:10;0.20;;;0.20;;
23086;SDS011;11712;51.134;4.156;2022-07-30T13:10:35;0.20;;;0.20;;
23086;SDS011;11712;51.134;4.156;2022-07-30T13:13:01;0.30;;;0.30;;
23086;SDS011;11712;51.134;4.156;2022-07-30T13:15:27;0.30;;;0.30;;
23086;SDS011;11712;51.134;4.156;2022-07-30T13:17:53;0.20;;;0.20;;
23086;SDS011;11712;51.134;4.156;2022-07-30T13:20:19;0.30;;;0.30;;
23086;SDS011;11712;51.134;4.156;2022-07-30T13:22:45;0.22;;;0.22;;
23086;SDS011;11712;51.134;4.156;2022-07-30T13:25:10;0.30;;;0.30;;
23086;SDS011;11712;51.134;4.156;2022-07-30T13:27:36;0.30;;;0.30;;
23086;SDS011;11712;51.134;4.156;2022-07-30T13:30:03;0.20;;;0.20;;
23086;SDS011;11712;51.134;4.156;2022-07-30T13:32:29;0.20;;;0.20;;
23086;SDS011;11712;51.134;4.156;2022-07-30T13:34:55;0.20;;;0.20;;
23086;SDS011;11712;51.134;4.156;2022-07-30T13:37:21;0.22;;;0.22;;
23086;SDS011;11712;51.134;4.156;2022-07-30T13:39:47;0.20;;;0.20;;
23086;SDS011;11712;51.134;4.156;2022-07-30T13:42:13;0.20;;;0.20;;
23086;SDS011;11712;51.134;4.156;2022-07-30T13:44:38;0.20;;;0.20;;
23086;SDS011;11712;51.134;4.156;2022-07-30T13:47:04;0.25;;;0.25;;
23086;SDS011;11712;51.134;4.156;2022-07-30T13:49:32;0.20;;;0.20;;
23086;SDS011;11712;51.134;4.156;2022-07-30T13:52:00;0.20;;;0.20;;
23086;SDS011;11712;51.134;4.156;2022-07-30T13:54:26;0.20;;;0.20;;
23086;SDS011;11712;51.134;4.156;2022-07-30T13:56:53;0.20;;;0.20;;
23086;SDS011;11712;51.134;4.156;2022-07-30T13:59:19;0.30;;;0.30;;
23086;SDS011;11712;51.134;4.156;2022-07-30T14:01:44;0.20;;;0.20;;
23086;SDS011;11712;51.134;4.156;2022-07-30T14:04:10;0.30;;;0.30;;
23086;SDS011;11712;51.134;4.156;2022-07-30T14:06:35;0.30;;;0.30;;
23086;SDS011;11712;51.134;4.156;2022-07-30T14:09:02;0.30;;;0.30;;
23086;SDS011;11712;51.134;4.156;2022-07-30T14:11:28;0.20;;;0.20;;
23086;SDS011;11712;51.134;4.156;2022-07-30T14:13:54;0.20;;;0.20;;
23086;SDS011;11712;51.134;4.156;2022-07-30T14:16:20;0.20;;;0.20;;
23086;SDS011;11712;51.134;4.156;2022-07-30T14:18:45;0.20;;;0.20;;
23086;SDS011;11712;51.134;4.156;2022-07-30T14:21:11;0.20;;;0.20;;
23086;SDS011;11712;51.134;4.156;2022-07-30T14:23:37;0.20;;;0.20;;
23086;SDS011;11712;51.134;4.156;2022-07-30T14:26:03;0.20;;;0.20;;
23086;SDS011;11712;51.134;4.156;2022-07-30T14:28:28;0.22;;;0.22;;
23086;SDS011;11712;51.134;4.156;2022-07-30T14:30:54;0.20;;;0.20;;
23086;SDS011;11712;51.134;4.156;2022-07-30T14:33:20;0.30;;;0.30;;
23086;SDS011;11712;51.134;4.156;2022-07-30T14:35:45;0.20;;;0.20;;
23086;SDS011;11712;51.134;4.156;2022-07-30T14:38:11;0.20;;;0.20;;
23086;SDS011;11712;51.134;4.156;2022-07-30T14:40:37;0.30;;;0.30;;
23086;SDS011;11712;51.134;4.156;2022-07-30T14:43:02;0.20;;;0.20;;
23086;SDS011;11712;51.134;4.156;2022-07-30T14:45:28;0.20;;;0.20;;
23086;SDS011;11712;51.134;4.156;2022-07-30T14:47:54;0.20;;;0.20;;
23086;SDS011;11712;51.134;4.156;2022-07-30T14:50:20;0.30;;;0.30;;
23086;SDS011;11712;51.134;4.156;2022-07-30T14:52:46;0.30;;;0.30;;
23086;SDS011;11712;51.134;4.156;2022-07-30T14:55:12;0.20;;;0.20;;
23086;SDS011;11712;51.134;4.156;2022-07-30T14:57:38;0.20;;;0.20;;
23086;SDS011;11712;51.134;4.156;2022-07-30T15:00:04;0.20;;;0.20;;
23086;SDS011;11712;51.134;4.156;2022-07-30T15:02:33;0.20;;;0.20;;
23086;SDS011;11712;51.134;4.156;2022-07-30T15:04:59;0.20;;;0.20;;
23086;SDS011;11712;51.134;4.156;2022-07-30T15:07:24;0.20;;;0.20;;
23086;SDS011;11712;51.134;4.156;2022-07-30T15:09:51;0.20;;;0.20;;
23086;SDS011;11712;51.134;4.156;2022-07-30T15:12:16;0.20;;;0.20;;
23086;SDS011;11712;51.134;4.156;2022-07-30T15:14:42;0.30;;;0.30;;
23086;SDS011;11712;51.134;4.156;2022-07-30T15:17:10;0.30;;;0.30;;
23086;SDS011;11712;51.134;4.156;2022-07-30T15:19:36;0.20;;;0.20;;
23086;SDS011;11712;51.134;4.156;2022-07-30T15:22:01;0.20;;;0.20;;
23086;SDS011;11712;51.134;4.156;2022-07-30T15:24:27;0.20;;;0.20;;
23086;SDS011;11712;51.134;4.156;2022-07-30T15:26:53;0.20;;;0.20;;
23086;SDS011;11712;51.134;4.156;2022-07-30T15:29:20;0.20;;;0.20;;
23086;SDS011;11712;51.134;4.156;2022-07-30T15:31:48;0.20;;;0.20;;
23086;SDS011;11712;51.134;4.156;2022-07-30T15:34:17;0.20;;;0.20;;
23086;SDS011;11712;51.134;4.156;2022-07-30T15:36:43;0.20;;;0.20;;